sensor_id;sensor_type;location;lat;lon;timestamp;pressure;altitude;pressure_sealevel;temperature;humidity
76358;BME280;65185;21.060;105.826;2024-01-06T00:00:16;102003.34;;;20.37;100.00
76358;BME280;65185;21.060;105.826;2024-01-06T00:02:43;102005.22;;;20.32;100.00
76358;BME280;65185;21.060;105.826;2024-01-06T00:05:10;101999.94;;;20.33;100.00
76358;BME280;65185;21.060;105.826;2024-01-06T00:07:37;102006.03;;;20.35;100.00
76358;BME280;65185;21.060;105.826;2024-01-06T00:10:05;102010.50;;;20.32;100.00
76358;BME280;65185;21.060;105.826;2024-01-06T00:12:32;102018.38;;;20.32;100.00
76358;BME280;65185;21.060;105.826;2024-01-06T00:14:59;102017.53;;;20.31;100.00
76358;BME280;65185;21.060;105.826;2024-01-06T00:17:26;102023.66;;;20.32;100.00
76358;BME280;65185;21.060;105.826;2024-01-06T00:19:53;102027.13;;;20.34;100.00
76358;BME280;65185;21.060;105.826;2024-01-06T00:22:21;102039.31;;;20.38;100.00
76358;BME280;65185;21.060;105.826;2024-01-06T00:24:48;102045.53;;;20.34;100.00
76358;BME280;65185;21.060;105.826;2024-01-06T00:27:15;102046.41;;;20.34;100.00
76358;BME280;65185;21.060;105.826;2024-01-06T00:29:43;102049.84;;;20.38;100.00
76358;BME280;65185;21.060;105.826;2024-01-06T00:32:10;102053.31;;;20.40;100.00
76358;BME280;65185;21.060;105.826;2024-01-06T00:34:37;102044.44;;;20.42;100.00
76358;BME280;65185;21.060;105.826;2024-01-06T00:37:04;102041.81;;;20.42;100.00
76358;BME280;65185;21.060;105.826;2024-01-06T00:39:31;102043.56;;;20.43;100.00
76358;BME280;65185;21.060;105.826;2024-01-06T00:41:58;102054.97;;;20.42;100.00
76358;BME280;65185;21.060;105.826;2024-01-06T00:44:25;102054.97;;;20.42;100.00
76358;BME280;65185;21.060;105.826;2024-01-06T00:46:52;102060.28;;;20.41;100.00
76358;BME280;65185;21.060;105.826;2024-01-06T00:49:19;102065.50;;;20.42;100.00
76358;BME280;65185;21.060;105.826;2024-01-06T00:51:46;102072.44;;;20.46;100.00
76358;BME280;65185;21.060;105.826;2024-01-06T00:54:13;102069.81;;;20.46;100.00
76358;BME280;65185;21.060;105.826;2024-01-06T00:56:40;102080.34;;;20.46;100.00
76358;BME280;65185;21.060;105.826;2024-01-06T00:59:09;102068.84;;;20.50;100.00
76358;BME280;65185;21.060;105.826;2024-01-06T01:01:36;102072.31;;;20.52;100.00
76358;BME280;65185;21.060;105.826;2024-01-06T01:04:03;102062.59;;;20.54;100.00
76358;BME280;65185;21.060;105.826;2024-01-06T01:06:31;102070.50;;;20.54;100.00
76358;BME280;65185;21.060;105.826;2024-01-06T01:08:58;102072.19;;;20.57;100.00
76358;BME280;65185;21.060;105.826;2024-01-06T01:11:25;102077.38;;;20.60;100.00
76358;BME280;65185;21.060;105.826;2024-01-06T01:13:52;102088.75;;;20.62;100.00
76358;BME280;65185;21.060;105.826;2024-01-06T01:16:19;102097.44;;;20.65;100.00
76358;BME280;65185;21.060;105.826;2024-01-06T01:18:46;102095.66;;;20.67;100.00
76358;BME280;65185;21.060;105.826;2024-01-06T01:21:14;102108.88;;;20.64;100.00
76358;BME280;65185;21.060;105.826;2024-01-06T01:23:41;102114.09;;;20.66;100.00
76358;BME280;65185;21.060;105.826;2024-01-06T01:26:09;102114.06;;;20.67;100.00
76358;BME280;65185;21.060;105.826;2024-01-06T01:28:36;102113.16;;;20.68;100.00
76358;BME280;65185;21.060;105.826;2024-01-06T01:31:03;102118.44;;;20.68;100.00
76358;BME280;65185;21.060;105.826;2024-01-06T01:33:30;102132.44;;;20.70;100.00
76358;BME280;65185;21.060;105.826;2024-01-06T01:35:57;102133.25;;;20.72;100.00
76358;BME280;65185;21.060;105.826;2024-01-06T01:38:24;102132.44;;;20.70;100.00
76358;BME280;65185;21.060;105.826;2024-01-06T01:40:51;102129.78;;;20.70;100.00
76358;BME280;65185;21.060;105.826;2024-01-06T01:43:19;102130.63;;;20.72;100.00
76358;BME280;65185;21.060;105.826;2024-01-06T01:45:53;102127.03;;;20.75;100.00
76358;BME280;65185;21.060;105.826;2024-01-06T01:48:21;102133.13;;;20.77;100.00
76358;BME280;65185;21.060;105.826;2024-01-06T01:50:49;102140.28;;;20.72;100.00
76358;BME280;65185;21.060;105.826;2024-01-06T01:53:16;102147.31;;;20.73;100.00
76358;BME280;65185;21.060;105.826;2024-01-06T01:55:44;102140.25;;;20.73;100.00
76358;BME280;65185;21.060;105.826;2024-01-06T01:58:12;102142.78;;;20.78;100.00
76358;BME280;65185;21.060;105.826;2024-01-06T02:00:40;102146.28;;;20.78;100.00
76358;BME280;65185;21.060;105.826;2024-01-06T02:03:07;102154.13;;;20.81;100.00
76358;BME280;65185;21.060;105.826;2024-01-06T02:05:36;102153.19;;;20.82;100.00
76358;BME280;65185;21.060;105.826;2024-01-06T02:08:03;102156.66;;;20.84;100.00
76358;BME280;65185;21.060;105.826;2024-01-06T02:10:31;102154.16;;;20.80;100.00
76358;BME280;65185;21.060;105.826;2024-01-06T02:13:10;102162.06;;;20.80;100.00
76358;BME280;65185;21.060;105.826;2024-01-06T02:15:37;102161.97;;;20.83;100.00
76358;BME280;65185;21.060;105.826;2024-01-06T02:18:04;102167.19;;;20.84;100.00
76358;BME280;65185;21.060;105.826;2024-01-06T02:20:32;102165.34;;;20.88;100.00
76358;BME280;65185;21.060;105.826;2024-01-06T02:22:59;102174.88;;;20.94;100.00
76358;BME280;65185;21.060;105.826;2024-01-06T02:25:26;102158.81;;;21.06;100.00
76358;BME280;65185;21.060;105.826;2024-01-06T02:27:53;102164.53;;;21.23;100.00
76358;BME280;65185;21.060;105.826;2024-01-06T02:30:20;102158.00;;;21.36;100.00
76358;BME280;65185;21.060;105.826;2024-01-06T02:32:48;102166.50;;;21.47;100.00
76358;BME280;65185;21.060;105.826;2024-01-06T02:35:15;102163.72;;;21.53;100.00
76358;BME280;65185;21.060;105.826;2024-01-06T02:37:42;102147.78;;;21.56;100.00
76358;BME280;65185;21.060;105.826;2024-01-06T02:40:10;102161.84;;;21.56;100.00
76358;BME280;65185;21.060;105.826;2024-01-06T02:42:37;102154.00;;;21.55;100.00
76358;BME280;65185;21.060;105.826;2024-01-06T02:45:04;102145.97;;;21.58;100.00
76358;BME280;65185;21.060;105.826;2024-01-06T02:47:31;102140.75;;;21.56;100.00
76358;BME280;65185;21.060;105.826;2024-01-06T02:49:58;102144.31;;;21.55;100.00
76358;BME280;65185;21.060;105.826;2024-01-06T02:52:25;102136.34;;;21.57;100.00
76358;BME280;65185;21.060;105.826;2024-01-06T02:54:52;102132.06;;;21.53;100.00
76358;BME280;65185;21.060;105.826;2024-01-06T02:57:19;102132.88;;;21.55;100.00
76358;BME280;65185;21.060;105.826;2024-01-06T02:59:46;102126.69;;;21.57;100.00
76358;BME280;65185;21.060;105.826;2024-01-06T03:02:13;102133.63;;;21.60;100.00
76358;BME280;65185;21.060;105.826;2024-01-06T03:04:41;102128.28;;;21.61;100.00
76358;BME280;65185;21.060;105.826;2024-01-06T03:07:07;102127.41;;;21.62;100.00
76358;BME280;65185;21.060;105.826;2024-01-06T03:09:34;102122.19;;;21.61;100.00
76358;BME280;65185;21.060;105.826;2024-01-06T03:12:01;102123.84;;;21.63;100.00
76358;BME280;65185;21.060;105.826;2024-01-06T03:14:29;102130.78;;;21.67;100.00
76358;BME280;65185;21.060;105.826;2024-01-06T03:16:56;102128.09;;;21.69;100.00
76358;BME280;65185;21.060;105.826;2024-01-06T03:19:24;102112.19;;;21.72;100.00
76358;BME280;65185;21.060;105.826;2024-01-06T03:21:53;102105.00;;;21.77;100.00
76358;BME280;65185;21.060;105.826;2024-01-06T03:24:25;102108.50;;;21.77;100.00
76358;BME280;65185;21.060;105.826;2024-01-06T03:26:52;102102.31;;;21.78;100.00
76358;BME280;65185;21.060;105.826;2024-01-06T03:29:19;102095.19;;;21.82;100.00
76358;BME280;65185;21.060;105.826;2024-01-06T03:31:47;102102.03;;;21.89;100.00
76358;BME280;65185;21.060;105.826;2024-01-06T03:34:14;102102.88;;;21.90;100.00
76358;BME280;65185;21.060;105.826;2024-01-06T03:36:41;102099.31;;;21.92;100.00
76358;BME280;65185;21.060;105.826;2024-01-06T03:39:09;102086.88;;;21.96;100.00
76358;BME280;65185;21.060;105.826;2024-01-06T03:41:36;102079.78;;;21.98;100.00
76358;BME280;65185;21.060;105.826;2024-01-06T03:44:03;102080.69;;;21.97;100.00
76358;BME280;65185;21.060;105.826;2024-01-06T03:46:30;102063.13;;;21.96;100.00
76358;BME280;65185;21.060;105.826;2024-01-06T03:48:57;102052.56;;;21.96;100.00
76358;BME280;65185;21.060;105.826;2024-01-06T03:51:25;102042.78;;;21.99;100.00
76358;BME280;65185;21.060;105.826;2024-01-06T03:53:52;102041.69;;;22.06;100.00
76358;BME280;65185;21.060;105.826;2024-01-06T03:56:19;102043.94;;;22.18;100.00
76358;BME280;65185;21.060;105.826;2024-01-06T03:58:46;102036.19;;;22.40;100.00
76358;BME280;65185;21.060;105.826;2024-01-06T04:01:13;102035.31;;;22.67;100.00
76358;BME280;65185;21.060;105.826;2024-01-06T04:03:40;102032.72;;;22.90;100.00
76358;BME280;65185;21.060;105.826;2024-01-06T04:06:12;102033.13;;;23.04;100.00
76358;BME280;65185;21.060;105.826;2024-01-06T04:08:40;102037.97;;;23.16;100.00
76358;BME280;65185;21.060;105.826;2024-01-06T04:11:07;102033.09;;;23.29;100.00
76358;BME280;65185;21.060;105.826;2024-01-06T04:13:35;102015.81;;;23.43;100.00
76358;BME280;65185;21.060;105.826;2024-01-06T04:16:02;102012.06;;;23.50;100.00
76358;BME280;65185;21.060;105.826;2024-01-06T04:18:29;102009.16;;;23.56;100.00
76358;BME280;65185;21.060;105.826;2024-01-06T04:20:56;102006.22;;;23.64;100.00
76358;BME280;65185;21.060;105.826;2024-01-06T04:23:23;101988.56;;;23.64;100.00
76358;BME280;65185;21.060;105.826;2024-01-06T04:25:51;101974.31;;;23.68;100.00
76358;BME280;65185;21.060;105.826;2024-01-06T04:28:18;101974.31;;;23.68;100.00
76358;BME280;65185;21.060;105.826;2024-01-06T04:30:45;101964.97;;;23.58;100.00
76358;BME280;65185;21.060;105.826;2024-01-06T04:33:12;101961.03;;;23.47;100.00
76358;BME280;65185;21.060;105.826;2024-01-06T04:35:38;101950.00;;;23.36;100.00
76358;BME280;65185;21.060;105.826;2024-01-06T04:38:05;101952.00;;;23.29;100.00
76358;BME280;65185;21.060;105.826;2024-01-06T04:40:32;101943.22;;;23.27;100.00
76358;BME280;65185;21.060;105.826;2024-01-06T04:43:00;101938.94;;;23.25;100.00
76358;BME280;65185;21.060;105.826;2024-01-06T04:45:26;101928.38;;;23.25;100.00
76358;BME280;65185;21.060;105.826;2024-01-06T04:47:53;101916.97;;;23.23;100.00
76358;BME280;65185;21.060;105.826;2024-01-06T04:50:20;101909.19;;;23.18;99.86
76358;BME280;65185;21.060;105.826;2024-01-06T04:52:49;101919.03;;;23.15;100.00
76358;BME280;65185;21.060;105.826;2024-01-06T04:55:16;101916.81;;;23.04;100.00
76358;BME280;65185;21.060;105.826;2024-01-06T04:57:43;101907.38;;;22.97;100.00
76358;BME280;65185;21.060;105.826;2024-01-06T05:00:13;101900.47;;;22.93;100.00
76358;BME280;65185;21.060;105.826;2024-01-06T05:02:39;101892.63;;;22.90;100.00
76358;BME280;65185;21.060;105.826;2024-01-06T05:05:07;101888.34;;;22.88;100.00
76358;BME280;65185;21.060;105.826;2024-01-06T05:07:33;101887.53;;;22.86;100.00
76358;BME280;65185;21.060;105.826;2024-01-06T05:10:00;101883.00;;;22.89;100.00
76358;BME280;65185;21.060;105.826;2024-01-06T05:12:26;101879.28;;;22.95;100.00
76358;BME280;65185;21.060;105.826;2024-01-06T05:14:53;101867.44;;;23.05;100.00
76358;BME280;65185;21.060;105.826;2024-01-06T05:17:20;101865.47;;;23.10;100.00
76358;BME280;65185;21.060;105.826;2024-01-06T05:19:47;101866.22;;;23.13;100.00
76358;BME280;65185;21.060;105.826;2024-01-06T05:22:14;101852.03;;;23.16;100.00
76358;BME280;65185;21.060;105.826;2024-01-06T05:24:40;101853.00;;;23.13;100.00
76358;BME280;65185;21.060;105.826;2024-01-06T05:27:07;101847.59;;;23.16;99.92
76358;BME280;65185;21.060;105.826;2024-01-06T05:29:33;101839.59;;;23.18;99.71
76358;BME280;65185;21.060;105.826;2024-01-06T05:32:00;101838.75;;;23.17;99.26
76358;BME280;65185;21.060;105.826;2024-01-06T05:34:26;101828.97;;;23.19;100.00
76358;BME280;65185;21.060;105.826;2024-01-06T05:36:53;101830.63;;;23.22;100.00
76358;BME280;65185;21.060;105.826;2024-01-06T05:39:19;101820.97;;;23.21;100.00
76358;BME280;65185;21.060;105.826;2024-01-06T05:41:46;101821.50;;;23.29;100.00
76358;BME280;65185;21.060;105.826;2024-01-06T05:44:12;101812.56;;;23.33;99.66
76358;BME280;65185;21.060;105.826;2024-01-06T05:46:39;101807.03;;;23.39;99.34
76358;BME280;65185;21.060;105.826;2024-01-06T05:49:05;101803.66;;;23.35;99.87
76358;BME280;65185;21.060;105.826;2024-01-06T05:51:32;101792.41;;;23.30;99.87
76358;BME280;65185;21.060;105.826;2024-01-06T05:53:59;101783.66;;;23.28;99.95
76358;BME280;65185;21.060;105.826;2024-01-06T05:56:25;101780.91;;;23.31;99.48
76358;BME280;65185;21.060;105.826;2024-01-06T05:58:53;101784.03;;;23.41;99.13
76358;BME280;65185;21.060;105.826;2024-01-06T06:01:20;101765.13;;;23.50;99.20
76358;BME280;65185;21.060;105.826;2024-01-06T06:03:47;101756.88;;;23.57;98.59
76358;BME280;65185;21.060;105.826;2024-01-06T06:06:15;101755.13;;;23.58;96.90
76358;BME280;65185;21.060;105.826;2024-01-06T06:08:43;101746.38;;;23.56;95.74
76358;BME280;65185;21.060;105.826;2024-01-06T06:11:10;101743.91;;;23.51;94.93
76358;BME280;65185;21.060;105.826;2024-01-06T06:13:38;101744.88;;;23.49;94.67
76358;BME280;65185;21.060;105.826;2024-01-06T06:16:08;101741.50;;;23.45;95.71
76358;BME280;65185;21.060;105.826;2024-01-06T06:18:35;101734.69;;;23.40;96.23
76358;BME280;65185;21.060;105.826;2024-01-06T06:21:02;101734.75;;;23.38;96.77
76358;BME280;65185;21.060;105.826;2024-01-06T06:23:33;101731.44;;;23.33;96.61
76358;BME280;65185;21.060;105.826;2024-01-06T06:26:03;101726.97;;;23.35;95.36
76358;BME280;65185;21.060;105.826;2024-01-06T06:28:29;101721.34;;;23.43;94.86
76358;BME280;65185;21.060;105.826;2024-01-06T06:30:56;101723.53;;;23.53;94.84
76358;BME280;65185;21.060;105.826;2024-01-06T06:33:22;101726.13;;;23.55;94.50
76358;BME280;65185;21.060;105.826;2024-01-06T06:35:49;101720.72;;;23.58;94.21
76358;BME280;65185;21.060;105.826;2024-01-06T06:38:15;101719.19;;;23.52;94.50
76358;BME280;65185;21.060;105.826;2024-01-06T06:40:42;101714.22;;;23.45;94.33
76358;BME280;65185;21.060;105.826;2024-01-06T06:43:08;101705.59;;;23.40;94.52
76358;BME280;65185;21.060;105.826;2024-01-06T06:45:35;101699.56;;;23.36;94.79
76358;BME280;65185;21.060;105.826;2024-01-06T06:48:01;101697.78;;;23.37;94.00
76358;BME280;65185;21.060;105.826;2024-01-06T06:50:28;101694.97;;;23.41;93.66
76358;BME280;65185;21.060;105.826;2024-01-06T06:52:55;101692.25;;;23.43;93.17
76358;BME280;65185;21.060;105.826;2024-01-06T06:55:21;101682.72;;;23.59;93.99
76358;BME280;65185;21.060;105.826;2024-01-06T06:57:48;101679.63;;;23.69;93.32
76358;BME280;65185;21.060;105.826;2024-01-06T07:00:15;101672.13;;;23.79;92.99
76358;BME280;65185;21.060;105.826;2024-01-06T07:02:42;101675.56;;;23.81;93.01
76358;BME280;65185;21.060;105.826;2024-01-06T07:05:09;101670.53;;;23.75;93.21
76358;BME280;65185;21.060;105.826;2024-01-06T07:07:36;101677.09;;;23.66;93.81
76358;BME280;65185;21.060;105.826;2024-01-06T07:10:04;101668.44;;;23.63;94.47
76358;BME280;65185;21.060;105.826;2024-01-06T07:12:32;101662.50;;;23.58;94.74
76358;BME280;65185;21.060;105.826;2024-01-06T07:14:58;101652.09;;;23.53;94.79
76358;BME280;65185;21.060;105.826;2024-01-06T07:17:25;101653.06;;;23.52;95.21
76358;BME280;65185;21.060;105.826;2024-01-06T07:19:52;101642.56;;;23.49;95.07
76358;BME280;65185;21.060;105.826;2024-01-06T07:22:20;101640.88;;;23.48;96.17
76358;BME280;65185;21.060;105.826;2024-01-06T07:24:46;101637.50;;;23.45;96.28
76358;BME280;65185;21.060;105.826;2024-01-06T07:27:13;101634.84;;;23.45;97.86
76358;BME280;65185;21.060;105.826;2024-01-06T07:29:40;101628.94;;;23.38;96.65
76358;BME280;65185;21.060;105.826;2024-01-06T07:32:07;101629.09;;;23.35;95.68
76358;BME280;65185;21.060;105.826;2024-01-06T07:34:33;101620.38;;;23.33;96.41
76358;BME280;65185;21.060;105.826;2024-01-06T07:37:00;101624.78;;;23.33;97.58
76358;BME280;65185;21.060;105.826;2024-01-06T07:39:27;101631.81;;;23.34;98.53
76358;BME280;65185;21.060;105.826;2024-01-06T07:41:53;101624.59;;;23.37;98.82
76358;BME280;65185;21.060;105.826;2024-01-06T07:44:20;101621.75;;;23.42;97.65
76358;BME280;65185;21.060;105.826;2024-01-06T07:46:51;101634.72;;;23.48;97.28
76358;BME280;65185;21.060;105.826;2024-01-06T07:49:18;101624.84;;;23.51;97.11
76358;BME280;65185;21.060;105.826;2024-01-06T07:51:44;101623.09;;;23.52;97.77
76358;BME280;65185;21.060;105.826;2024-01-06T07:54:11;101623.19;;;23.49;97.32
76358;BME280;65185;21.060;105.826;2024-01-06T07:56:38;101628.63;;;23.46;96.73
76358;BME280;65185;21.060;105.826;2024-01-06T07:59:05;101621.63;;;23.45;96.92
76358;BME280;65185;21.060;105.826;2024-01-06T08:01:32;101627.84;;;23.44;96.29
76358;BME280;65185;21.060;105.826;2024-01-06T08:03:59;101622.63;;;23.42;96.25
76358;BME280;65185;21.060;105.826;2024-01-06T08:06:26;101629.69;;;23.42;95.39
76358;BME280;65185;21.060;105.826;2024-01-06T08:08:52;101640.19;;;23.43;94.98
76358;BME280;65185;21.060;105.826;2024-01-06T08:11:19;101636.63;;;23.44;94.68
76358;BME280;65185;21.060;105.826;2024-01-06T08:13:46;101636.72;;;23.43;92.98
76358;BME280;65185;21.060;105.826;2024-01-06T08:16:12;101639.22;;;23.46;93.51
76358;BME280;65185;21.060;105.826;2024-01-06T08:18:39;101635.69;;;23.45;93.08
76358;BME280;65185;21.060;105.826;2024-01-06T08:21:06;101629.56;;;23.45;93.22
76358;BME280;65185;21.060;105.826;2024-01-06T08:23:32;101641.78;;;23.47;93.17
76358;BME280;65185;21.060;105.826;2024-01-06T08:25:59;101645.28;;;23.48;92.40
76358;BME280;65185;21.060;105.826;2024-01-06T08:28:25;101645.28;;;23.48;92.38
76358;BME280;65185;21.060;105.826;2024-01-06T08:30:52;101642.72;;;23.46;92.10
76358;BME280;65185;21.060;105.826;2024-01-06T08:33:18;101656.06;;;23.43;91.41
76358;BME280;65185;21.060;105.826;2024-01-06T08:35:45;101652.56;;;23.43;91.44
76358;BME280;65185;21.060;105.826;2024-01-06T08:38:12;101654.22;;;23.45;93.10
76358;BME280;65185;21.060;105.826;2024-01-06T08:40:38;101647.38;;;23.41;93.85
76358;BME280;65185;21.060;105.826;2024-01-06T08:43:05;101650.19;;;23.37;92.86
76358;BME280;65185;21.060;105.826;2024-01-06T08:45:32;101653.69;;;23.37;91.17
76358;BME280;65185;21.060;105.826;2024-01-06T08:47:58;101655.22;;;23.43;90.28
76358;BME280;65185;21.060;105.826;2024-01-06T08:50:25;101640.06;;;23.46;89.40
76358;BME280;65185;21.060;105.826;2024-01-06T08:52:51;101647.78;;;23.51;89.88
76358;BME280;65185;21.060;105.826;2024-01-06T08:55:18;101656.59;;;23.51;91.79
76358;BME280;65185;21.060;105.826;2024-01-06T08:57:44;101654.75;;;23.53;94.95
76358;BME280;65185;21.060;105.826;2024-01-06T09:00:12;101662.03;;;23.48;95.15
76358;BME280;65185;21.060;105.826;2024-01-06T09:02:39;101660.38;;;23.46;96.36
76358;BME280;65185;21.060;105.826;2024-01-06T09:05:06;101664.78;;;23.45;97.36
76358;BME280;65185;21.060;105.826;2024-01-06T09:07:33;101659.66;;;23.42;98.02
76358;BME280;65185;21.060;105.826;2024-01-06T09:09:59;101659.56;;;23.44;98.29
76358;BME280;65185;21.060;105.826;2024-01-06T09:12:26;101661.63;;;23.37;98.99
76358;BME280;65185;21.060;105.826;2024-01-06T09:14:52;101665.25;;;23.35;100.00
76358;BME280;65185;21.060;105.826;2024-01-06T09:17:19;101653.00;;;23.32;100.00
76358;BME280;65185;21.060;105.826;2024-01-06T09:19:46;101657.63;;;23.27;100.00
76358;BME280;65185;21.060;105.826;2024-01-06T09:22:13;101661.13;;;23.28;96.78
76358;BME280;65185;21.060;105.826;2024-01-06T09:24:40;101668.13;;;23.29;94.67
76358;BME280;65185;21.060;105.826;2024-01-06T09:27:07;101667.28;;;23.28;96.23
76358;BME280;65185;21.060;105.826;2024-01-06T09:29:34;101672.59;;;23.27;98.74
76358;BME280;65185;21.060;105.826;2024-01-06T09:32:00;101677.13;;;23.25;100.00
76358;BME280;65185;21.060;105.826;2024-01-06T09:34:28;101665.03;;;23.19;100.00
76358;BME280;65185;21.060;105.826;2024-01-06T09:36:54;101675.72;;;23.16;100.00
76358;BME280;65185;21.060;105.826;2024-01-06T09:39:21;101668.78;;;23.14;100.00
76358;BME280;65185;21.060;105.826;2024-01-06T09:41:47;101662.78;;;23.10;100.00
76358;BME280;65185;21.060;105.826;2024-01-06T09:44:14;101671.69;;;23.08;100.00
76358;BME280;65185;21.060;105.826;2024-01-06T09:46:42;101666.53;;;23.05;100.00
76358;BME280;65185;21.060;105.826;2024-01-06T09:49:09;101665.72;;;23.03;100.00
76358;BME280;65185;21.060;105.826;2024-01-06T09:51:39;101665.75;;;23.01;100.00
76358;BME280;65185;21.060;105.826;2024-01-06T09:54:12;101685.94;;;23.04;100.00
76358;BME280;65185;21.060;105.826;2024-01-06T09:56:39;101689.50;;;23.03;100.00
76358;BME280;65185;21.060;105.826;2024-01-06T09:59:06;101683.13;;;23.08;100.00
76358;BME280;65185;21.060;105.826;2024-01-06T10:01:32;101680.19;;;23.14;99.13
76358;BME280;65185;21.060;105.826;2024-01-06T10:03:59;101685.44;;;23.16;98.95
76358;BME280;65185;21.060;105.826;2024-01-06T10:06:25;101692.50;;;23.15;98.96
76358;BME280;65185;21.060;105.826;2024-01-06T10:08:52;101694.28;;;23.15;99.02
76358;BME280;65185;21.060;105.826;2024-01-06T10:11:20;101694.16;;;23.18;99.52
76358;BME280;65185;21.060;105.826;2024-01-06T10:13:51;101694.94;;;23.20;99.57
76358;BME280;65185;21.060;105.826;2024-01-06T10:16:17;101694.94;;;23.20;98.33
76358;BME280;65185;21.060;105.826;2024-01-06T10:18:44;101709.78;;;23.24;97.53
76358;BME280;65185;21.060;105.826;2024-01-06T10:21:11;101717.56;;;23.27;96.46
76358;BME280;65185;21.060;105.826;2024-01-06T10:23:39;101721.91;;;23.29;96.58
76358;BME280;65185;21.060;105.826;2024-01-06T10:26:12;101723.00;;;23.24;97.52
76358;BME280;65185;21.060;105.826;2024-01-06T10:28:39;101723.19;;;23.19;98.80
76358;BME280;65185;21.060;105.826;2024-01-06T10:31:08;101725.13;;;23.16;99.50
76358;BME280;65185;21.060;105.826;2024-01-06T10:33:35;101725.22;;;23.13;99.37
76358;BME280;65185;21.060;105.826;2024-01-06T10:36:03;101727.84;;;23.13;100.00
76358;BME280;65185;21.060;105.826;2024-01-06T10:38:31;101715.50;;;23.13;100.00
76358;BME280;65185;21.060;105.826;2024-01-06T10:41:01;101728.91;;;23.09;100.00
76358;BME280;65185;21.060;105.826;2024-01-06T10:43:34;101745.63;;;23.09;99.80
76358;BME280;65185;21.060;105.826;2024-01-06T10:46:05;101746.31;;;23.14;98.68
76358;BME280;65185;21.060;105.826;2024-01-06T10:48:37;101750.69;;;23.15;98.79
76358;BME280;65185;21.060;105.826;2024-01-06T10:51:14;101746.31;;;23.14;98.80
76358;BME280;65185;21.060;105.826;2024-01-06T10:53:41;101760.16;;;23.21;98.75
76358;BME280;65185;21.060;105.826;2024-01-06T10:56:09;101762.00;;;23.19;99.11
76358;BME280;65185;21.060;105.826;2024-01-06T10:58:57;101773.53;;;23.16;100.00
76358;BME280;65185;21.060;105.826;2024-01-06T11:01:24;101772.94;;;23.10;100.00
76358;BME280;65185;21.060;105.826;2024-01-06T11:03:52;101773.91;;;23.07;100.00
76358;BME280;65185;21.060;105.826;2024-01-06T11:06:20;101772.28;;;23.05;97.55
76358;BME280;65185;21.060;105.826;2024-01-06T11:11:20;101793.34;;;23.06;98.64
76358;BME280;65185;21.060;105.826;2024-01-06T11:13:47;101796.06;;;23.05;98.09
76358;BME280;65185;21.060;105.826;2024-01-06T11:16:36;101798.56;;;23.08;97.84
76358;BME280;65185;21.060;105.826;2024-01-06T11:19:03;101800.34;;;23.07;97.67
76358;BME280;65185;21.060;105.826;2024-01-06T11:21:33;101794.03;;;23.11;97.55
76358;BME280;65185;21.060;105.826;2024-01-06T11:24:18;101787.13;;;23.07;98.44
76358;BME280;65185;21.060;105.826;2024-01-06T11:26:52;101784.69;;;23.03;100.00
76358;BME280;65185;21.060;105.826;2024-01-06T11:29:21;101786.47;;;23.02;100.00
76358;BME280;65185;21.060;105.826;2024-01-06T11:34:52;101804.22;;;22.99;100.00
76358;BME280;65185;21.060;105.826;2024-01-06T11:43:02;101795.94;;;22.85;100.00
76358;BME280;65185;21.060;105.826;2024-01-06T11:45:30;101803.09;;;22.83;100.00
76358;BME280;65185;21.060;105.826;2024-01-06T11:48:00;101815.38;;;22.84;100.00
76358;BME280;65185;21.060;105.826;2024-01-06T11:50:29;101801.41;;;22.80;100.00
76358;BME280;65185;21.060;105.826;2024-01-06T11:52:56;101801.53;;;22.77;100.00
76358;BME280;65185;21.060;105.826;2024-01-06T11:55:23;101801.66;;;22.74;100.00
76358;BME280;65185;21.060;105.826;2024-01-06T11:57:50;101804.41;;;22.71;100.00
76358;BME280;65185;21.060;105.826;2024-01-06T12:00:17;101816.81;;;22.69;100.00
76358;BME280;65185;21.060;105.826;2024-01-06T12:02:44;101836.19;;;22.69;100.00
76358;BME280;65185;21.060;105.826;2024-01-06T12:05:17;101831.72;;;22.70;100.00
76358;BME280;65185;21.060;105.826;2024-01-06T12:07:53;101838.06;;;22.66;100.00
76358;BME280;65185;21.060;105.826;2024-01-06T12:10:26;101835.44;;;22.66;100.00
76358;BME280;65185;21.060;105.826;2024-01-06T12:13:00;101841.34;;;22.72;100.00
76358;BME280;65185;21.060;105.826;2024-01-06T12:15:29;101847.22;;;22.81;100.00
76358;BME280;65185;21.060;105.826;2024-01-06T12:17:56;101840.09;;;22.83;100.00
76358;BME280;65185;21.060;105.826;2024-01-06T12:20:24;101830.81;;;22.94;100.00
76358;BME280;65185;21.060;105.826;2024-01-06T12:22:55;101834.81;;;22.83;100.00
76358;BME280;65185;21.060;105.826;2024-01-06T12:25:22;101839.63;;;22.71;100.00
76358;BME280;65185;21.060;105.826;2024-01-06T12:27:49;101832.94;;;22.61;100.00
76358;BME280;65185;21.060;105.826;2024-01-06T12:30:19;101824.38;;;22.55;100.00
76358;BME280;65185;21.060;105.826;2024-01-06T12:32:47;101842.00;;;22.54;100.00
76358;BME280;65185;21.060;105.826;2024-01-06T12:35:16;101855.25;;;22.53;100.00